createdAt,value
2022-10-22T00:00:28.001Z,8.27
2022-10-22T00:03:15.060Z,7.18
2022-10-22T00:06:00.354Z,8.40
2022-10-22T00:08:46.210Z,10.50
2022-10-22T00:11:34.564Z,8.20
2022-10-22T00:14:19.786Z,7.95
2022-10-22T00:17:08.023Z,7.95
2022-10-22T00:19:57.326Z,9.00
2022-10-22T00:22:43.070Z,8.43
2022-10-22T00:25:28.516Z,7.90
2022-10-22T00:28:14.535Z,8.10
2022-10-22T00:30:59.854Z,7.47
2022-10-22T00:33:47.015Z,8.98
2022-10-22T00:36:36.547Z,9.02
2022-10-22T00:39:23.861Z,10.18
2022-10-22T00:42:11.501Z,9.77
2022-10-22T00:45:21.739Z,9.75
2022-10-22T00:48:16.568Z,10.10
2022-10-22T00:51:16.010Z,9.90
2022-10-22T00:54:08.484Z,8.20
2022-10-22T00:56:53.945Z,10.85
2022-10-22T00:59:39.743Z,9.15
2022-10-22T01:02:25.481Z,11.18
2022-10-22T01:05:10.852Z,11.23
2022-10-22T01:11:03.302Z,10.10
2022-10-22T01:14:03.340Z,9.93
2022-10-22T01:17:04.095Z,9.02
2022-10-22T01:19:58.604Z,12.82
2022-10-22T01:23:00.912Z,10.23
2022-10-22T01:25:55.915Z,9.48
2022-10-22T01:29:18.307Z,8.95
2022-10-22T01:32:06.945Z,8.20
2022-10-22T01:34:54.156Z,8.75
2022-10-22T01:37:43.168Z,14.30
2022-10-22T01:40:30.780Z,8.23
2022-10-22T01:43:19.330Z,13.65
2022-10-22T01:46:09.144Z,8.73
2022-10-22T01:49:13.533Z,10.32
2022-10-22T01:52:15.182Z,7.93
2022-10-22T01:55:11.214Z,9.05
2022-10-22T01:58:15.693Z,7.97
2022-10-22T02:01:09.263Z,9.25
2022-10-22T02:04:29.345Z,8.05
2022-10-22T02:07:20.110Z,9.45
2022-10-22T02:10:06.034Z,10.07
2022-10-22T02:12:54.341Z,8.55
2022-10-22T02:16:04.234Z,9.07
2022-10-22T02:18:53.325Z,9.77
2022-10-22T02:21:38.547Z,9.45
2022-10-22T02:24:24.785Z,7.95
2022-10-22T02:27:58.657Z,8.52
2022-10-22T02:30:44.451Z,8.60
2022-10-22T02:33:48.546Z,9.07
2022-10-22T02:36:36.252Z,8.23
2022-10-22T02:39:22.319Z,9.05
2022-10-22T02:42:07.640Z,7.88
2022-10-22T02:44:53.066Z,7.63
2022-10-22T02:47:38.697Z,8.20
2022-10-22T02:50:25.130Z,7.22
2022-10-22T02:53:10.492Z,7.82
2022-10-22T02:55:55.764Z,7.85
2022-10-22T02:58:41.412Z,11.73
2022-10-22T03:01:26.864Z,7.05
2022-10-22T03:04:12.154Z,7.88
2022-10-22T03:07:00.822Z,6.40
2022-10-22T03:09:47.011Z,8.30
2022-10-22T03:12:32.592Z,8.43
2022-10-22T03:15:18.018Z,8.55
2022-10-22T03:18:03.443Z,8.15
2022-10-22T03:20:48.955Z,11.52
2022-10-22T03:23:38.261Z,11.35
2022-10-22T03:26:24.734Z,12.38
2022-10-22T03:29:10.162Z,10.57
2022-10-22T03:31:55.604Z,12.65
2022-10-22T03:34:41.312Z,10.23
2022-10-22T03:37:27.115Z,11.63
2022-10-22T03:40:14.728Z,11.30
2022-10-22T03:43:01.264Z,13.05
2022-10-22T03:45:46.579Z,10.95
2022-10-22T03:48:32.814Z,11.45
2022-10-22T03:51:18.588Z,12.23
2022-10-22T03:54:03.862Z,12.00
2022-10-22T03:56:49.528Z,14.15
2022-10-22T03:59:35.007Z,13.27
2022-10-22T04:02:20.353Z,13.00
2022-10-22T04:05:06.058Z,12.20
2022-10-22T04:07:51.377Z,14.60
2022-10-22T04:10:36.773Z,14.00
2022-10-22T04:13:22.958Z,12.00
2022-10-22T04:16:08.635Z,12.32
2022-10-22T04:18:54.375Z,11.52
2022-10-22T04:21:43.274Z,11.70
2022-10-22T04:24:29.417Z,11.75
2022-10-22T04:27:15.276Z,12.93
2022-10-22T04:30:02.373Z,13.95
2022-10-22T04:32:48.319Z,12.25
2022-10-22T04:35:33.888Z,13.88
2022-10-22T04:38:19.376Z,13.55
2022-10-22T04:41:05.095Z,10.63
2022-10-22T04:43:50.465Z,14.95
2022-10-22T04:46:38.251Z,11.63
2022-10-22T04:49:24.101Z,10.90
2022-10-22T04:52:09.449Z,13.02
2022-10-22T04:54:56.440Z,11.07
2022-10-22T04:57:42.833Z,14.80
2022-10-22T05:00:29.236Z,11.13
2022-10-22T05:03:15.590Z,10.63
2022-10-22T05:06:01.139Z,11.57
2022-10-22T05:08:46.640Z,15.30
2022-10-22T05:11:34.543Z,9.98
2022-10-22T05:14:22.111Z,12.57
2022-10-22T05:17:07.964Z,11.70
2022-10-22T05:19:55.542Z,10.13
2022-10-22T05:22:41.259Z,10.68
2022-10-22T05:25:27.390Z,9.57
2022-10-22T05:28:13.713Z,10.38
2022-10-22T05:30:58.968Z,10.32
2022-10-22T05:33:45.349Z,12.10
2022-10-22T05:36:38.735Z,10.80
2022-10-22T05:39:29.837Z,11.07
2022-10-22T05:42:15.223Z,11.40
2022-10-22T05:45:01.869Z,10.15
2022-10-22T05:47:49.029Z,10.38
2022-10-22T05:50:34.633Z,9.80
2022-10-22T05:53:30.548Z,14.45
2022-10-22T05:56:19.217Z,16.10
2022-10-22T05:59:05.477Z,11.45
2022-10-22T06:02:04.333Z,10.13
2022-10-22T06:04:49.720Z,9.70
2022-10-22T06:07:35.267Z,10.10
2022-10-22T06:10:21.134Z,8.27
2022-10-22T06:13:07.583Z,9.82
2022-10-22T06:15:53.287Z,11.55
2022-10-22T06:18:39.091Z,11.30
2022-10-22T06:21:30.499Z,10.93
2022-10-22T06:24:19.499Z,10.38
2022-10-22T06:27:08.817Z,15.63
2022-10-22T06:29:54.463Z,11.07
2022-10-22T06:32:40.245Z,11.77
2022-10-22T06:35:26.207Z,9.77
2022-10-22T06:38:11.681Z,9.98
2022-10-22T06:40:57.174Z,10.32
2022-10-22T06:43:42.926Z,10.48
2022-10-22T06:46:38.101Z,10.82
2022-10-22T06:49:29.234Z,11.02
2022-10-22T06:52:14.605Z,10.45
2022-10-22T06:55:00.221Z,10.23
2022-10-22T06:57:46.028Z,8.82
2022-10-22T07:03:23.830Z,10.63
2022-10-22T07:06:10.743Z,8.10
2022-10-22T07:08:58.179Z,8.77
2022-10-22T07:11:47.058Z,8.48
2022-10-22T07:14:34.677Z,9.38
2022-10-22T07:17:20.137Z,13.32
2022-10-22T07:20:05.527Z,9.25
2022-10-22T07:22:55.167Z,8.88
2022-10-22T07:25:43.088Z,10.00
2022-10-22T07:28:31.082Z,10.10
2022-10-22T07:31:18.583Z,11.27
2022-10-22T07:34:04.897Z,10.90
2022-10-22T07:36:50.642Z,9.18
2022-10-22T07:39:37.137Z,9.38
2022-10-22T07:42:22.669Z,9.30
2022-10-22T07:45:08.049Z,9.60
2022-10-22T07:47:53.978Z,9.77
2022-10-22T07:50:39.536Z,10.40
2022-10-22T07:53:25.754Z,11.93
2022-10-22T07:56:11.953Z,8.23
2022-10-22T07:58:57.344Z,8.93
2022-10-22T08:01:42.645Z,9.60
2022-10-22T08:04:30.522Z,8.88
2022-10-22T08:07:16.112Z,9.88
2022-10-22T08:10:01.657Z,9.35
2022-10-22T08:13:22.894Z,9.23
2022-10-22T08:16:08.301Z,8.48
2022-10-22T08:18:57.872Z,7.18
2022-10-22T08:21:43.289Z,7.28
2022-10-22T08:24:28.966Z,7.32
2022-10-22T08:27:14.473Z,7.88
2022-10-22T08:29:59.909Z,6.70
2022-10-22T08:32:45.229Z,7.65
2022-10-22T08:35:30.708Z,7.07
2022-10-22T08:38:17.485Z,9.57
2022-10-22T08:41:08.199Z,7.35
2022-10-22T08:44:05.372Z,6.70
2022-10-22T08:47:12.833Z,8.43
2022-10-22T08:50:00.810Z,8.25
2022-10-22T08:52:47.059Z,7.28
2022-10-22T08:55:37.242Z,7.15
2022-10-22T08:58:45.015Z,8.45
2022-10-22T09:01:39.720Z,6.65
2022-10-22T09:05:03.409Z,7.68
2022-10-22T09:07:48.796Z,8.27
2022-10-22T09:10:36.319Z,7.65
2022-10-22T09:13:23.642Z,8.60
2022-10-22T09:16:18.284Z,8.40
2022-10-22T09:22:52.165Z,8.57
2022-10-22T09:25:40.696Z,7.90
2022-10-22T09:28:28.683Z,6.68
2022-10-22T09:31:14.283Z,6.05
2022-10-22T09:34:03.639Z,7.63
2022-10-22T09:36:49.979Z,6.90
2022-10-22T09:39:51.659Z,8.05
2022-10-22T09:42:39.022Z,8.63
2022-10-22T09:45:25.211Z,9.88
2022-10-22T09:48:29.535Z,8.85
2022-10-22T09:51:24.693Z,7.88
2022-10-22T09:54:18.824Z,8.07
2022-10-22T09:57:18.348Z,11.30
2022-10-22T10:00:07.787Z,7.68
2022-10-22T10:03:18.742Z,7.90
2022-10-22T10:06:11.940Z,7.78
2022-10-22T10:08:57.417Z,10.05
2022-10-22T10:11:52.584Z,7.80
2022-10-22T10:14:49.021Z,8.35
2022-10-22T10:17:52.916Z,7.43
2022-10-22T10:21:05.271Z,7.85
2022-10-22T10:24:08.768Z,7.57
2022-10-22T10:27:01.194Z,8.43
2022-10-22T10:30:24.846Z,7.47
2022-10-22T10:33:16.057Z,6.28
2022-10-22T10:36:18.832Z,6.60
2022-10-22T10:39:14.991Z,5.20
2022-10-22T10:42:00.540Z,7.30
2022-10-22T10:45:11.861Z,6.15
2022-10-22T10:48:19.854Z,6.38
2022-10-22T10:51:17.338Z,6.38
2022-10-22T10:54:02.354Z,7.28
2022-10-22T10:57:06.342Z,4.85
2022-10-22T11:00:34.135Z,8.32
2022-10-22T11:03:52.963Z,6.03
2022-10-22T11:06:42.168Z,5.55
2022-10-22T11:09:55.403Z,7.03
2022-10-22T11:12:57.972Z,7.38
2022-10-22T11:15:54.485Z,6.50
2022-10-22T11:19:00.586Z,6.20
2022-10-22T11:21:53.646Z,10.15
2022-10-22T11:24:44.690Z,7.20
2022-10-22T11:28:06.652Z,6.70
2022-10-22T11:30:56.678Z,6.32
2022-10-22T11:33:45.657Z,6.13
2022-10-22T11:39:45.788Z,6.00
2022-10-22T11:42:38.849Z,5.35
2022-10-22T11:45:27.456Z,7.03
2022-10-22T11:48:15.558Z,6.00
2022-10-22T11:51:17.109Z,7.32
2022-10-22T11:54:02.587Z,6.22
2022-10-22T11:56:57.139Z,6.45
2022-10-22T12:00:07.762Z,6.70
2022-10-22T12:03:05.003Z,7.63
2022-10-22T12:05:54.061Z,7.57
2022-10-22T12:08:44.666Z,7.53
2022-10-22T12:11:30.092Z,8.18
2022-10-22T12:14:46.255Z,6.70
2022-10-22T12:17:34.594Z,7.55
2022-10-22T12:20:25.714Z,5.63
2022-10-22T12:23:13.931Z,7.57
2022-10-22T12:25:59.310Z,5.82
2022-10-22T12:28:44.982Z,7.80
2022-10-22T12:31:35.826Z,6.00
2022-10-22T12:34:21.579Z,7.45
2022-10-22T12:37:08.474Z,7.63
2022-10-22T12:39:54.181Z,4.72
2022-10-22T12:42:39.536Z,2.85
2022-10-22T12:45:25.523Z,6.25
2022-10-22T12:48:16.585Z,6.00
2022-10-22T12:51:06.052Z,6.43
2022-10-22T12:53:54.488Z,10.52
2022-10-22T12:56:44.382Z,7.53
2022-10-22T12:59:57.343Z,6.13
2022-10-22T13:02:46.861Z,6.18
2022-10-22T13:05:49.704Z,5.50
2022-10-22T13:08:42.392Z,7.40
2022-10-22T13:11:30.492Z,9.15
2022-10-22T13:14:39.871Z,5.75
2022-10-22T13:17:27.850Z,5.55
2022-10-22T13:20:13.268Z,6.03
2022-10-22T13:23:10.942Z,5.53
2022-10-22T13:25:56.981Z,7.25
2022-10-22T13:28:42.615Z,3.88
2022-10-22T13:31:45.192Z,3.05
2022-10-22T13:34:35.944Z,6.68
2022-10-22T13:37:21.553Z,4.47
2022-10-22T13:40:10.921Z,6.55
2022-10-22T13:42:57.860Z,6.22
2022-10-22T13:45:43.492Z,7.05
2022-10-22T13:48:35.091Z,6.63
2022-10-22T13:51:20.730Z,6.43
2022-10-22T13:54:08.264Z,7.55
2022-10-22T13:56:54.441Z,7.28
2022-10-22T13:59:39.891Z,7.82
2022-10-22T14:02:32.987Z,7.80
2022-10-22T14:05:18.417Z,5.53
2022-10-22T14:08:04.256Z,9.15
2022-10-22T14:10:49.657Z,9.05
2022-10-22T14:13:38.551Z,8.40
2022-10-22T14:16:26.450Z,6.85
2022-10-22T14:19:13.937Z,7.80
2022-10-22T14:21:59.523Z,11.52
2022-10-22T14:24:44.978Z,9.30
2022-10-22T14:27:33.484Z,8.40
2022-10-22T14:30:18.972Z,10.10
2022-10-22T14:33:04.536Z,9.23
2022-10-22T14:35:50.143Z,8.85
2022-10-22T14:38:37.675Z,9.27
2022-10-22T14:41:35.586Z,12.70
2022-10-22T14:44:21.070Z,9.63
2022-10-22T14:47:06.418Z,11.05
2022-10-22T14:49:51.978Z,10.27
2022-10-22T14:52:37.421Z,9.35
2022-10-22T14:55:23.134Z,11.18
2022-10-22T14:58:08.884Z,10.07
2022-10-22T15:00:54.578Z,18.10
2022-10-22T15:03:40.460Z,11.13
2022-10-22T15:06:26.963Z,9.85
2022-10-22T15:09:12.765Z,11.32
2022-10-22T15:11:58.333Z,8.75
2022-10-22T15:14:44.056Z,10.85
2022-10-22T15:17:29.653Z,11.80
2022-10-22T15:20:18.824Z,10.20
2022-10-22T15:23:04.405Z,10.85
2022-10-22T15:25:49.826Z,10.75
2022-10-22T15:28:35.824Z,9.90
2022-10-22T15:31:21.748Z,10.77
2022-10-22T15:34:07.256Z,8.95
2022-10-22T15:36:53.648Z,11.63
2022-10-22T15:39:39.275Z,10.38
2022-10-22T15:42:24.781Z,11.40
2022-10-22T15:45:17.720Z,10.88
2022-10-22T15:48:04.736Z,11.02
2022-10-22T15:50:50.831Z,12.73
2022-10-22T15:53:36.363Z,12.13
2022-10-22T15:56:22.540Z,10.88
2022-10-22T15:59:15.484Z,13.20
2022-10-22T16:02:02.249Z,11.82
2022-10-22T16:04:47.604Z,11.75
2022-10-22T16:07:33.581Z,12.43
2022-10-22T16:10:19.070Z,11.20
2022-10-22T16:13:04.646Z,12.32
2022-10-22T16:15:53.683Z,12.13
2022-10-22T16:18:40.359Z,12.45
2022-10-22T16:21:31.184Z,10.60
2022-10-22T16:24:19.306Z,10.30
2022-10-22T16:30:15.320Z,15.48
2022-10-22T16:33:03.352Z,15.13
2022-10-22T16:35:50.185Z,10.25
2022-10-22T16:38:35.723Z,10.20
2022-10-22T16:41:31.219Z,10.05
2022-10-22T16:44:16.714Z,9.32
2022-10-22T16:47:02.259Z,10.70
2022-10-22T16:49:53.801Z,11.48
2022-10-22T16:52:39.093Z,10.60
2022-10-22T16:55:24.615Z,9.88
2022-10-22T16:58:12.816Z,10.40
2022-10-22T17:00:58.261Z,9.75
2022-10-22T17:03:43.735Z,10.57
2022-10-22T17:06:33.960Z,12.50
2022-10-22T17:09:19.585Z,8.45
2022-10-22T17:12:05.061Z,9.48
2022-10-22T17:14:50.720Z,13.35
2022-10-22T17:17:36.156Z,11.35
2022-10-22T17:20:25.526Z,11.55
2022-10-22T17:23:11.659Z,10.90
2022-10-22T17:26:02.673Z,11.23
2022-10-22T17:28:48.877Z,10.50
2022-10-22T17:31:37.790Z,11.25
2022-10-22T17:34:26.462Z,11.57
2022-10-22T17:37:11.765Z,13.13
2022-10-22T17:39:57.200Z,10.20
2022-10-22T17:42:43.550Z,10.90
2022-10-22T17:45:29.441Z,9.98
2022-10-22T17:48:15.219Z,10.23
2022-10-22T17:51:01.759Z,10.70
2022-10-22T17:53:47.223Z,9.65
2022-10-22T17:56:39.971Z,11.52
2022-10-22T17:59:27.294Z,9.98
2022-10-22T18:02:12.834Z,10.07
2022-10-22T18:04:58.131Z,9.98
2022-10-22T18:07:43.619Z,11.68
2022-10-22T18:10:29.311Z,10.25
2022-10-22T18:13:14.861Z,11.80
2022-10-22T18:16:00.368Z,13.10
2022-10-22T18:18:46.325Z,10.07
2022-10-22T18:21:33.556Z,8.68
2022-10-22T18:24:19.002Z,9.70
2022-10-22T18:27:04.715Z,11.63
2022-10-22T18:29:50.799Z,11.20
2022-10-22T18:32:41.497Z,12.20
2022-10-22T18:35:28.223Z,9.43
2022-10-22T18:38:14.043Z,14.38
2022-10-22T18:41:04.915Z,13.50
2022-10-22T18:43:55.598Z,9.45
2022-10-22T18:46:41.938Z,10.85
2022-10-22T18:49:27.398Z,14.00
2022-10-22T18:52:13.008Z,10.80
2022-10-22T18:54:58.437Z,9.32
2022-10-22T18:57:44.390Z,11.45
2022-10-22T19:00:30.784Z,10.38
2022-10-22T19:03:16.532Z,10.18
2022-10-22T19:06:10.603Z,12.27
2022-10-22T19:08:56.819Z,10.15
2022-10-22T19:11:42.764Z,10.85
2022-10-22T19:14:28.153Z,10.23
2022-10-22T19:17:13.901Z,9.93
2022-10-22T19:19:59.351Z,9.70
2022-10-22T19:22:47.855Z,11.98
2022-10-22T19:25:33.357Z,9.70
2022-10-22T19:28:19.330Z,12.60
2022-10-22T19:31:04.717Z,14.18
2022-10-22T19:33:50.059Z,11.88
2022-10-22T19:36:38.598Z,11.90
2022-10-22T19:39:24.844Z,14.85
2022-10-22T19:42:10.748Z,12.25
2022-10-22T19:44:56.135Z,11.43
2022-10-22T19:47:42.859Z,9.52
2022-10-22T19:50:28.377Z,10.63
2022-10-22T19:53:14.410Z,10.68
2022-10-22T19:56:04.924Z,11.55
2022-10-22T19:58:50.347Z,12.75
2022-10-22T20:01:38.656Z,11.63
2022-10-22T20:04:24.187Z,10.65
2022-10-22T20:07:10.304Z,9.95
2022-10-22T20:09:58.662Z,10.55
2022-10-22T20:12:44.055Z,12.43
2022-10-22T20:15:29.372Z,11.70
2022-10-22T20:18:15.069Z,10.88
2022-10-22T20:21:00.632Z,10.85
2022-10-22T20:23:45.962Z,10.95
2022-10-22T20:26:31.827Z,10.50
2022-10-22T20:29:17.539Z,10.35
2022-10-22T20:32:05.484Z,12.02
2022-10-22T20:34:56.453Z,10.55
2022-10-22T20:37:42.001Z,11.95
2022-10-22T20:40:28.084Z,9.80
2022-10-22T20:43:15.553Z,10.75
2022-10-22T20:46:00.966Z,9.82
2022-10-22T20:48:47.573Z,20.05
2022-10-22T20:51:33.643Z,10.93
2022-10-22T20:54:19.023Z,10.55
2022-10-22T20:57:04.778Z,10.18
2022-10-22T20:59:51.343Z,11.68
2022-10-22T21:02:36.871Z,11.20
2022-10-22T21:05:22.149Z,9.63
2022-10-22T21:08:08.900Z,11.13
2022-10-22T21:10:54.861Z,10.85
2022-10-22T21:13:42.741Z,8.05
2022-10-22T21:16:31.069Z,9.48
2022-10-22T21:19:17.725Z,9.77
2022-10-22T21:22:03.608Z,9.40
2022-10-22T21:24:50.737Z,10.70
2022-10-22T21:27:36.118Z,11.00
2022-10-22T21:30:22.098Z,10.95
2022-10-22T21:33:07.630Z,11.70
2022-10-22T21:35:53.389Z,9.80
2022-10-22T21:38:40.099Z,12.02
2022-10-22T21:41:30.974Z,10.18
2022-10-22T21:44:16.515Z,10.38
2022-10-22T21:47:01.932Z,11.43
2022-10-22T21:49:47.353Z,8.93
2022-10-22T21:52:32.784Z,10.15
2022-10-22T21:55:18.262Z,11.32
2022-10-22T21:58:03.944Z,9.73
2022-10-22T22:00:49.721Z,10.88
2022-10-22T22:03:35.140Z,11.55
2022-10-22T22:06:23.866Z,10.55
2022-10-22T22:09:11.968Z,11.57
2022-10-22T22:11:57.486Z,8.65
2022-10-22T22:14:42.804Z,9.90
2022-10-22T22:17:28.776Z,11.60
2022-10-22T22:20:14.465Z,8.95
2022-10-22T22:23:00.230Z,10.20
2022-10-22T22:25:45.696Z,9.60
2022-10-22T22:28:31.364Z,9.40
2022-10-22T22:31:17.397Z,10.98
2022-10-22T22:34:03.276Z,9.48
2022-10-22T22:36:56.233Z,8.10
2022-10-22T22:39:42.077Z,9.25
2022-10-22T22:42:27.788Z,9.88
2022-10-22T22:45:13.099Z,13.40
2022-10-22T22:47:58.654Z,9.43
2022-10-22T22:50:44.118Z,10.95
2022-10-22T22:53:29.665Z,9.50
2022-10-22T22:56:46.028Z,10.50
2022-10-22T22:59:31.578Z,9.75
2022-10-22T23:02:17.158Z,8.70
2022-10-22T23:05:02.603Z,9.15
2022-10-22T23:07:48.088Z,11.63
2022-10-22T23:10:33.481Z,10.07
2022-10-22T23:13:18.858Z,9.15
2022-10-22T23:16:04.453Z,11.10
2022-10-22T23:18:49.854Z,9.95
2022-10-22T23:21:37.702Z,9.57
2022-10-22T23:24:26.655Z,10.20
2022-10-22T23:27:13.923Z,9.45
2022-10-22T23:29:59.553Z,10.20
2022-10-22T23:32:44.995Z,9.15
2022-10-22T23:35:30.427Z,9.50
2022-10-22T23:38:17.456Z,11.80
2022-10-22T23:41:02.822Z,8.90
2022-10-22T23:43:49.468Z,10.05
2022-10-22T23:46:35.774Z,11.20
2022-10-22T23:49:21.435Z,9.25
2022-10-22T23:52:07.059Z,9.40
2022-10-22T23:54:52.883Z,8.15
2022-10-22T23:57:38.579Z,12.05
